sensor_id;sensor_type;location;lat;lon;timestamp;temperature;humidity
74153;DHT22;62505;46.070;14.492;2023-05-07T00:01:29;22.60;66.20
74153;DHT22;62505;46.070;14.492;2023-05-07T00:03:56;22.60;66.20
74153;DHT22;62505;46.070;14.492;2023-05-07T00:06:25;22.60;66.20
74153;DHT22;62505;46.070;14.492;2023-05-07T00:08:56;22.60;66.20
74153;DHT22;62505;46.070;14.492;2023-05-07T00:11:23;22.60;66.20
74153;DHT22;62505;46.070;14.492;2023-05-07T00:13:51;22.60;66.20
74153;DHT22;62505;46.070;14.492;2023-05-07T00:16:18;22.60;66.20
74153;DHT22;62505;46.070;14.492;2023-05-07T00:18:45;22.60;66.20
74153;DHT22;62505;46.070;14.492;2023-05-07T00:21:11;22.60;66.10
74153;DHT22;62505;46.070;14.492;2023-05-07T00:23:40;22.60;66.10
74153;DHT22;62505;46.070;14.492;2023-05-07T00:26:07;22.60;66.10
74153;DHT22;62505;46.070;14.492;2023-05-07T00:28:33;22.60;66.00
74153;DHT22;62505;46.070;14.492;2023-05-07T00:31:00;22.60;66.00
74153;DHT22;62505;46.070;14.492;2023-05-07T00:33:27;22.60;66.00
74153;DHT22;62505;46.070;14.492;2023-05-07T00:35:54;22.60;66.00
74153;DHT22;62505;46.070;14.492;2023-05-07T00:38:21;22.60;66.80
74153;DHT22;62505;46.070;14.492;2023-05-07T00:40:49;22.60;66.00
74153;DHT22;62505;46.070;14.492;2023-05-07T00:43:17;22.60;66.00
74153;DHT22;62505;46.070;14.492;2023-05-07T00:45:43;22.60;66.00
74153;DHT22;62505;46.070;14.492;2023-05-07T00:48:11;22.50;66.00
74153;DHT22;62505;46.070;14.492;2023-05-07T00:50:38;22.60;66.00
74153;DHT22;62505;46.070;14.492;2023-05-07T00:53:05;22.60;66.00
74153;DHT22;62505;46.070;14.492;2023-05-07T00:55:33;22.50;65.90
74153;DHT22;62505;46.070;14.492;2023-05-07T00:58:01;22.60;66.00
74153;DHT22;62505;46.070;14.492;2023-05-07T01:00:28;22.60;65.90
74153;DHT22;62505;46.070;14.492;2023-05-07T01:02:55;22.50;65.90
74153;DHT22;62505;46.070;14.492;2023-05-07T01:05:23;22.60;66.00
74153;DHT22;62505;46.070;14.492;2023-05-07T01:07:52;22.50;66.70
74153;DHT22;62505;46.070;14.492;2023-05-07T01:10:20;22.60;65.90
74153;DHT22;62505;46.070;14.492;2023-05-07T01:12:48;22.60;65.90
74153;DHT22;62505;46.070;14.492;2023-05-07T01:15:18;22.50;66.70
74153;DHT22;62505;46.070;14.492;2023-05-07T01:17:45;22.50;65.90
74153;DHT22;62505;46.070;14.492;2023-05-07T01:20:12;22.50;65.90
74153;DHT22;62505;46.070;14.492;2023-05-07T01:22:41;22.60;65.90
74153;DHT22;62505;46.070;14.492;2023-05-07T01:25:09;22.60;65.90
74153;DHT22;62505;46.070;14.492;2023-05-07T01:27:36;22.60;65.90
74153;DHT22;62505;46.070;14.492;2023-05-07T01:30:03;22.50;65.80
74153;DHT22;62505;46.070;14.492;2023-05-07T01:32:35;22.50;65.80
74153;DHT22;62505;46.070;14.492;2023-05-07T01:35:07;22.50;65.90
74153;DHT22;62505;46.070;14.492;2023-05-07T01:37:34;22.60;65.90
74153;DHT22;62505;46.070;14.492;2023-05-07T01:40:04;22.50;65.80
74153;DHT22;62505;46.070;14.492;2023-05-07T01:42:31;22.60;65.80
74153;DHT22;62505;46.070;14.492;2023-05-07T01:44:58;22.50;65.80
74153;DHT22;62505;46.070;14.492;2023-05-07T01:47:25;22.50;65.80
74153;DHT22;62505;46.070;14.492;2023-05-07T01:49:53;22.50;65.80
74153;DHT22;62505;46.070;14.492;2023-05-07T01:52:20;22.50;65.80
74153;DHT22;62505;46.070;14.492;2023-05-07T01:54:47;22.60;65.80
74153;DHT22;62505;46.070;14.492;2023-05-07T01:57:15;22.50;65.70
74153;DHT22;62505;46.070;14.492;2023-05-07T01:59:42;22.60;65.80
74153;DHT22;62505;46.070;14.492;2023-05-07T02:02:09;22.50;65.70
74153;DHT22;62505;46.070;14.492;2023-05-07T02:04:36;22.50;65.70
74153;DHT22;62505;46.070;14.492;2023-05-07T02:07:03;22.50;65.70
74153;DHT22;62505;46.070;14.492;2023-05-07T02:09:29;22.60;65.70
74153;DHT22;62505;46.070;14.492;2023-05-07T02:11:56;22.60;65.70
74153;DHT22;62505;46.070;14.492;2023-05-07T02:14:24;22.60;65.70
74153;DHT22;62505;46.070;14.492;2023-05-07T02:16:52;22.50;65.70
74153;DHT22;62505;46.070;14.492;2023-05-07T02:19:18;22.60;65.70
74153;DHT22;62505;46.070;14.492;2023-05-07T02:21:46;22.50;65.60
74153;DHT22;62505;46.070;14.492;2023-05-07T02:24:13;22.50;65.70
74153;DHT22;62505;46.070;14.492;2023-05-07T02:26:40;22.60;65.70
74153;DHT22;62505;46.070;14.492;2023-05-07T02:29:07;22.60;65.70
74153;DHT22;62505;46.070;14.492;2023-05-07T02:31:35;22.50;65.60
74153;DHT22;62505;46.070;14.492;2023-05-07T02:34:02;22.50;65.60
74153;DHT22;62505;46.070;14.492;2023-05-07T02:36:29;22.60;65.60
74153;DHT22;62505;46.070;14.492;2023-05-07T02:38:56;22.60;65.60
74153;DHT22;62505;46.070;14.492;2023-05-07T02:41:23;22.50;65.50
74153;DHT22;62505;46.070;14.492;2023-05-07T02:43:50;22.60;66.40
74153;DHT22;62505;46.070;14.492;2023-05-07T02:46:17;22.50;65.60
74153;DHT22;62505;46.070;14.492;2023-05-07T02:48:45;22.60;65.60
74153;DHT22;62505;46.070;14.492;2023-05-07T02:51:12;22.50;65.50
74153;DHT22;62505;46.070;14.492;2023-05-07T02:53:38;22.60;65.60
74153;DHT22;62505;46.070;14.492;2023-05-07T02:56:06;22.50;65.50
74153;DHT22;62505;46.070;14.492;2023-05-07T02:58:33;22.50;65.50
74153;DHT22;62505;46.070;14.492;2023-05-07T03:01:00;22.60;65.60
74153;DHT22;62505;46.070;14.492;2023-05-07T03:03:27;22.50;65.40
74153;DHT22;62505;46.070;14.492;2023-05-07T03:05:56;22.60;65.60
74153;DHT22;62505;46.070;14.492;2023-05-07T03:08:23;22.60;65.50
74153;DHT22;62505;46.070;14.492;2023-05-07T03:10:50;22.50;65.40
74153;DHT22;62505;46.070;14.492;2023-05-07T03:13:18;22.50;65.40
74153;DHT22;62505;46.070;14.492;2023-05-07T03:15:45;22.50;65.40
74153;DHT22;62505;46.070;14.492;2023-05-07T03:18:11;22.50;65.40
74153;DHT22;62505;46.070;14.492;2023-05-07T03:20:38;22.50;65.40
74153;DHT22;62505;46.070;14.492;2023-05-07T03:23:07;22.50;65.40
74153;DHT22;62505;46.070;14.492;2023-05-07T03:25:33;22.50;65.40
74153;DHT22;62505;46.070;14.492;2023-05-07T03:28:00;22.60;65.40
74153;DHT22;62505;46.070;14.492;2023-05-07T03:30:27;22.50;65.40
74153;DHT22;62505;46.070;14.492;2023-05-07T03:32:54;22.50;65.30
74153;DHT22;62505;46.070;14.492;2023-05-07T03:35:21;22.60;65.40
74153;DHT22;62505;46.070;14.492;2023-05-07T03:37:48;22.50;65.40
74153;DHT22;62505;46.070;14.492;2023-05-07T03:40:16;22.60;65.40
74153;DHT22;62505;46.070;14.492;2023-05-07T03:42:43;22.50;65.30
74153;DHT22;62505;46.070;14.492;2023-05-07T03:45:10;22.60;65.40
74153;DHT22;62505;46.070;14.492;2023-05-07T03:47:37;22.50;65.30
74153;DHT22;62505;46.070;14.492;2023-05-07T03:50:04;22.50;65.30
74153;DHT22;62505;46.070;14.492;2023-05-07T03:52:31;22.60;65.40
74153;DHT22;62505;46.070;14.492;2023-05-07T03:54:58;22.60;65.40
74153;DHT22;62505;46.070;14.492;2023-05-07T03:57:26;22.50;65.30
74153;DHT22;62505;46.070;14.492;2023-05-07T03:59:53;22.50;66.20
74153;DHT22;62505;46.070;14.492;2023-05-07T04:02:20;22.50;65.30
74153;DHT22;62505;46.070;14.492;2023-05-07T04:04:48;22.50;65.30
74153;DHT22;62505;46.070;14.492;2023-05-07T04:07:15;22.50;65.30
74153;DHT22;62505;46.070;14.492;2023-05-07T04:09:42;22.50;65.30
74153;DHT22;62505;46.070;14.492;2023-05-07T04:12:09;22.50;65.30
74153;DHT22;62505;46.070;14.492;2023-05-07T04:14:37;22.50;65.30
74153;DHT22;62505;46.070;14.492;2023-05-07T04:17:04;22.50;65.30
74153;DHT22;62505;46.070;14.492;2023-05-07T04:19:33;22.50;65.30
74153;DHT22;62505;46.070;14.492;2023-05-07T04:22:00;22.60;65.30
74153;DHT22;62505;46.070;14.492;2023-05-07T04:24:27;22.60;65.30
74153;DHT22;62505;46.070;14.492;2023-05-07T04:26:54;22.50;65.30
74153;DHT22;62505;46.070;14.492;2023-05-07T04:29:20;22.50;65.30
74153;DHT22;62505;46.070;14.492;2023-05-07T04:31:49;22.60;65.20
74153;DHT22;62505;46.070;14.492;2023-05-07T04:34:15;22.60;65.30
74153;DHT22;62505;46.070;14.492;2023-05-07T04:36:42;22.50;65.20
74153;DHT22;62505;46.070;14.492;2023-05-07T04:39:09;22.60;65.30
74153;DHT22;62505;46.070;14.492;2023-05-07T04:41:36;22.50;65.30
74153;DHT22;62505;46.070;14.492;2023-05-07T04:44:03;22.50;65.20
74153;DHT22;62505;46.070;14.492;2023-05-07T04:46:31;22.50;65.20
74153;DHT22;62505;46.070;14.492;2023-05-07T04:48:59;22.60;65.30
74153;DHT22;62505;46.070;14.492;2023-05-07T04:51:26;22.50;65.20
74153;DHT22;62505;46.070;14.492;2023-05-07T04:53:53;22.60;65.20
74153;DHT22;62505;46.070;14.492;2023-05-07T04:56:20;22.50;65.20
74153;DHT22;62505;46.070;14.492;2023-05-07T04:58:47;22.50;65.20
74153;DHT22;62505;46.070;14.492;2023-05-07T05:01:14;22.50;65.20
74153;DHT22;62505;46.070;14.492;2023-05-07T05:03:41;22.50;65.20
74153;DHT22;62505;46.070;14.492;2023-05-07T05:06:09;22.50;65.20
74153;DHT22;62505;46.070;14.492;2023-05-07T05:08:36;22.60;65.20
74153;DHT22;62505;46.070;14.492;2023-05-07T05:11:03;22.50;65.20
74153;DHT22;62505;46.070;14.492;2023-05-07T05:13:30;22.50;65.20
74153;DHT22;62505;46.070;14.492;2023-05-07T05:15:57;22.50;65.10
74153;DHT22;62505;46.070;14.492;2023-05-07T05:18:24;22.50;66.00
74153;DHT22;62505;46.070;14.492;2023-05-07T05:20:51;22.50;65.20
74153;DHT22;62505;46.070;14.492;2023-05-07T05:23:19;22.60;65.30
74153;DHT22;62505;46.070;14.492;2023-05-07T05:25:46;22.60;65.20
74153;DHT22;62505;46.070;14.492;2023-05-07T05:28:13;22.50;65.20
74153;DHT22;62505;46.070;14.492;2023-05-07T05:30:40;22.50;65.10
74153;DHT22;62505;46.070;14.492;2023-05-07T05:33:07;22.50;65.10
74153;DHT22;62505;46.070;14.492;2023-05-07T05:35:34;22.60;65.20
74153;DHT22;62505;46.070;14.492;2023-05-07T05:38:01;22.50;65.20
74153;DHT22;62505;46.070;14.492;2023-05-07T05:40:30;22.50;65.20
74153;DHT22;62505;46.070;14.492;2023-05-07T05:42:56;22.50;65.10
74153;DHT22;62505;46.070;14.492;2023-05-07T05:45:23;22.60;65.20
74153;DHT22;62505;46.070;14.492;2023-05-07T05:47:50;22.50;65.10
74153;DHT22;62505;46.070;14.492;2023-05-07T05:50:17;22.50;65.10
74153;DHT22;62505;46.070;14.492;2023-05-07T05:52:44;22.60;65.20
74153;DHT22;62505;46.070;14.492;2023-05-07T05:55:11;22.60;65.20
74153;DHT22;62505;46.070;14.492;2023-05-07T05:57:39;22.50;65.90
74153;DHT22;62505;46.070;14.492;2023-05-07T06:00:07;22.60;65.20
74153;DHT22;62505;46.070;14.492;2023-05-07T06:02:34;22.60;65.20
74153;DHT22;62505;46.070;14.492;2023-05-07T06:05:01;22.60;65.20
74153;DHT22;62505;46.070;14.492;2023-05-07T06:07:28;22.50;65.10
74153;DHT22;62505;46.070;14.492;2023-05-07T06:09:55;22.50;65.10
74153;DHT22;62505;46.070;14.492;2023-05-07T06:12:22;22.50;65.10
74153;DHT22;62505;46.070;14.492;2023-05-07T06:14:50;22.60;65.20
74153;DHT22;62505;46.070;14.492;2023-05-07T06:17:17;22.50;65.10
74153;DHT22;62505;46.070;14.492;2023-05-07T06:19:44;22.60;65.20
74153;DHT22;62505;46.070;14.492;2023-05-07T06:22:11;22.50;65.10
74153;DHT22;62505;46.070;14.492;2023-05-07T06:24:38;22.60;65.10
74153;DHT22;62505;46.070;14.492;2023-05-07T06:27:05;22.50;65.10
74153;DHT22;62505;46.070;14.492;2023-05-07T06:29:32;22.60;65.10
74153;DHT22;62505;46.070;14.492;2023-05-07T06:32:07;22.50;65.10
74153;DHT22;62505;46.070;14.492;2023-05-07T06:34:34;22.50;65.10
74153;DHT22;62505;46.070;14.492;2023-05-07T06:37:01;22.50;65.10
74153;DHT22;62505;46.070;14.492;2023-05-07T06:39:28;22.50;65.10
74153;DHT22;62505;46.070;14.492;2023-05-07T06:41:55;22.60;65.10
74153;DHT22;62505;46.070;14.492;2023-05-07T06:44:22;22.50;65.10
74153;DHT22;62505;46.070;14.492;2023-05-07T06:46:49;22.60;65.10
74153;DHT22;62505;46.070;14.492;2023-05-07T06:49:17;22.50;65.80
74153;DHT22;62505;46.070;14.492;2023-05-07T06:51:44;22.60;65.10
74153;DHT22;62505;46.070;14.492;2023-05-07T06:54:11;22.60;65.10
74153;DHT22;62505;46.070;14.492;2023-05-07T06:56:38;22.50;65.00
74153;DHT22;62505;46.070;14.492;2023-05-07T06:59:05;22.60;65.10
74153;DHT22;62505;46.070;14.492;2023-05-07T07:01:32;22.50;65.30
74153;DHT22;62505;46.070;14.492;2023-05-07T07:03:59;22.50;65.00
74153;DHT22;62505;46.070;14.492;2023-05-07T07:06:28;22.60;65.00
74153;DHT22;62505;46.070;14.492;2023-05-07T07:08:57;22.50;64.70
74153;DHT22;62505;46.070;14.492;2023-05-07T07:11:24;22.60;64.50
74153;DHT22;62505;46.070;14.492;2023-05-07T07:13:51;22.60;64.50
74153;DHT22;62505;46.070;14.492;2023-05-07T07:16:19;22.50;64.10
74153;DHT22;62505;46.070;14.492;2023-05-07T07:18:46;22.50;64.10
74153;DHT22;62505;46.070;14.492;2023-05-07T07:21:13;22.50;63.90
74153;DHT22;62505;46.070;14.492;2023-05-07T07:23:41;22.50;63.70
74153;DHT22;62505;46.070;14.492;2023-05-07T07:26:08;22.50;63.60
74153;DHT22;62505;46.070;14.492;2023-05-07T07:28:36;22.50;63.70
74153;DHT22;62505;46.070;14.492;2023-05-07T07:31:08;22.50;63.50
74153;DHT22;62505;46.070;14.492;2023-05-07T07:33:35;22.50;63.30
74153;DHT22;62505;46.070;14.492;2023-05-07T07:36:02;22.50;63.20
74153;DHT22;62505;46.070;14.492;2023-05-07T07:38:28;22.50;62.90
74153;DHT22;62505;46.070;14.492;2023-05-07T07:40:57;22.50;62.90
74153;DHT22;62505;46.070;14.492;2023-05-07T07:43:24;22.50;62.80
74153;DHT22;62505;46.070;14.492;2023-05-07T07:45:50;22.50;62.80
74153;DHT22;62505;46.070;14.492;2023-05-07T07:48:17;22.50;62.60
74153;DHT22;62505;46.070;14.492;2023-05-07T07:50:44;22.50;62.60
74153;DHT22;62505;46.070;14.492;2023-05-07T07:53:11;22.50;62.60
74153;DHT22;62505;46.070;14.492;2023-05-07T07:55:38;22.50;62.70
74153;DHT22;62505;46.070;14.492;2023-05-07T07:58:07;22.50;63.30
74153;DHT22;62505;46.070;14.492;2023-05-07T08:00:34;22.40;62.50
74153;DHT22;62505;46.070;14.492;2023-05-07T08:03:01;22.50;62.50
74153;DHT22;62505;46.070;14.492;2023-05-07T08:05:28;22.40;62.50
74153;DHT22;62505;46.070;14.492;2023-05-07T08:07:55;22.50;62.40
74153;DHT22;62505;46.070;14.492;2023-05-07T08:10:24;22.40;62.40
74153;DHT22;62505;46.070;14.492;2023-05-07T08:12:51;22.50;63.60
74153;DHT22;62505;46.070;14.492;2023-05-07T08:15:19;22.50;62.50
74153;DHT22;62505;46.070;14.492;2023-05-07T08:17:46;22.50;62.40
74153;DHT22;62505;46.070;14.492;2023-05-07T08:20:13;22.40;62.40
74153;DHT22;62505;46.070;14.492;2023-05-07T08:22:40;22.40;62.30
74153;DHT22;62505;46.070;14.492;2023-05-07T08:25:08;22.50;62.40
74153;DHT22;62505;46.070;14.492;2023-05-07T08:27:35;22.50;62.40
74153;DHT22;62505;46.070;14.492;2023-05-07T08:30:02;22.50;62.40
74153;DHT22;62505;46.070;14.492;2023-05-07T08:32:30;22.40;62.10
74153;DHT22;62505;46.070;14.492;2023-05-07T08:34:57;22.40;62.10
74153;DHT22;62505;46.070;14.492;2023-05-07T08:37:24;22.50;62.50
74153;DHT22;62505;46.070;14.492;2023-05-07T08:39:51;22.40;62.70
74153;DHT22;62505;46.070;14.492;2023-05-07T08:42:18;22.40;62.90
74153;DHT22;62505;46.070;14.492;2023-05-07T08:44:48;22.40;62.90
74153;DHT22;62505;46.070;14.492;2023-05-07T08:47:19;22.50;62.90
74153;DHT22;62505;46.070;14.492;2023-05-07T08:49:48;22.50;62.70
74153;DHT22;62505;46.070;14.492;2023-05-07T08:52:15;22.50;63.10
74153;DHT22;62505;46.070;14.492;2023-05-07T08:54:42;22.50;63.00
74153;DHT22;62505;46.070;14.492;2023-05-07T08:57:09;22.50;63.40
74153;DHT22;62505;46.070;14.492;2023-05-07T08:59:36;22.50;62.90
74153;DHT22;62505;46.070;14.492;2023-05-07T09:02:04;22.50;62.90
74153;DHT22;62505;46.070;14.492;2023-05-07T09:04:31;22.50;62.60
74153;DHT22;62505;46.070;14.492;2023-05-07T09:06:59;22.50;62.80
74153;DHT22;62505;46.070;14.492;2023-05-07T09:09:32;22.50;62.20
74153;DHT22;62505;46.070;14.492;2023-05-07T09:11:59;22.40;62.60
74153;DHT22;62505;46.070;14.492;2023-05-07T09:14:26;22.40;62.40
74153;DHT22;62505;46.070;14.492;2023-05-07T09:16:53;22.50;62.60
74153;DHT22;62505;46.070;14.492;2023-05-07T09:19:22;22.40;62.40
74153;DHT22;62505;46.070;14.492;2023-05-07T09:21:49;22.40;62.10
74153;DHT22;62505;46.070;14.492;2023-05-07T09:24:17;22.40;62.30
74153;DHT22;62505;46.070;14.492;2023-05-07T09:26:44;22.40;62.30
74153;DHT22;62505;46.070;14.492;2023-05-07T09:29:11;22.50;62.30
74153;DHT22;62505;46.070;14.492;2023-05-07T09:31:38;22.50;62.30
74153;DHT22;62505;46.070;14.492;2023-05-07T09:34:04;22.50;62.40
74153;DHT22;62505;46.070;14.492;2023-05-07T09:36:32;22.50;62.40
74153;DHT22;62505;46.070;14.492;2023-05-07T09:38:59;22.50;62.30
74153;DHT22;62505;46.070;14.492;2023-05-07T09:41:30;22.50;62.30
74153;DHT22;62505;46.070;14.492;2023-05-07T09:43:57;22.50;62.30
74153;DHT22;62505;46.070;14.492;2023-05-07T09:46:29;22.50;62.80
74153;DHT22;62505;46.070;14.492;2023-05-07T09:48:57;22.50;63.20
74153;DHT22;62505;46.070;14.492;2023-05-07T09:51:29;22.50;63.60
74153;DHT22;62505;46.070;14.492;2023-05-07T09:53:57;22.50;63.60
74153;DHT22;62505;46.070;14.492;2023-05-07T09:56:27;22.50;64.10
74153;DHT22;62505;46.070;14.492;2023-05-07T09:58:57;22.50;64.00
74153;DHT22;62505;46.070;14.492;2023-05-07T10:01:26;22.50;64.20
74153;DHT22;62505;46.070;14.492;2023-05-07T10:03:53;22.50;64.30
74153;DHT22;62505;46.070;14.492;2023-05-07T10:06:23;22.50;64.30
74153;DHT22;62505;46.070;14.492;2023-05-07T10:08:51;22.50;64.50
74153;DHT22;62505;46.070;14.492;2023-05-07T10:11:18;22.50;64.50
74153;DHT22;62505;46.070;14.492;2023-05-07T10:13:48;22.50;64.50
74153;DHT22;62505;46.070;14.492;2023-05-07T10:16:15;22.50;64.80
74153;DHT22;62505;46.070;14.492;2023-05-07T10:18:43;22.50;64.90
74153;DHT22;62505;46.070;14.492;2023-05-07T10:21:13;22.50;65.10
74153;DHT22;62505;46.070;14.492;2023-05-07T10:23:45;22.50;65.00
74153;DHT22;62505;46.070;14.492;2023-05-07T10:26:13;22.60;65.00
74153;DHT22;62505;46.070;14.492;2023-05-07T10:28:44;22.60;65.20
74153;DHT22;62505;46.070;14.492;2023-05-07T10:31:27;22.60;65.10
74153;DHT22;62505;46.070;14.492;2023-05-07T10:33:56;22.50;65.20
74153;DHT22;62505;46.070;14.492;2023-05-07T10:36:24;22.50;65.10
74153;DHT22;62505;46.070;14.492;2023-05-07T10:38:52;22.50;65.50
74153;DHT22;62505;46.070;14.492;2023-05-07T10:41:20;22.50;65.30
74153;DHT22;62505;46.070;14.492;2023-05-07T10:43:47;22.50;65.50
74153;DHT22;62505;46.070;14.492;2023-05-07T10:46:17;22.50;65.40
74153;DHT22;62505;46.070;14.492;2023-05-07T10:49:06;22.50;65.50
74153;DHT22;62505;46.070;14.492;2023-05-07T10:51:33;22.50;65.80
74153;DHT22;62505;46.070;14.492;2023-05-07T10:54:22;22.50;65.40
74153;DHT22;62505;46.070;14.492;2023-05-07T10:56:52;22.60;65.40
74153;DHT22;62505;46.070;14.492;2023-05-07T10:59:35;22.60;65.40
74153;DHT22;62505;46.070;14.492;2023-05-07T11:02:09;22.60;67.00
74153;DHT22;62505;46.070;14.492;2023-05-07T11:04:37;22.60;67.60
74153;DHT22;62505;46.070;14.492;2023-05-07T11:07:28;22.60;68.40
74153;DHT22;62505;46.070;14.492;2023-05-07T11:09:57;22.50;68.00
74153;DHT22;62505;46.070;14.492;2023-05-07T11:12:54;22.50;68.60
74153;DHT22;62505;46.070;14.492;2023-05-07T11:15:38;22.60;69.30
74153;DHT22;62505;46.070;14.492;2023-05-07T11:18:06;22.50;69.40
74153;DHT22;62505;46.070;14.492;2023-05-07T11:20:54;22.60;69.80
74153;DHT22;62505;46.070;14.492;2023-05-07T11:23:55;22.60;69.60
74153;DHT22;62505;46.070;14.492;2023-05-07T11:26:23;22.60;69.50
74153;DHT22;62505;46.070;14.492;2023-05-07T11:28:51;22.70;69.60
74153;DHT22;62505;46.070;14.492;2023-05-07T11:31:23;22.70;69.40
74153;DHT22;62505;46.070;14.492;2023-05-07T11:33:53;22.70;70.20
74153;DHT22;62505;46.070;14.492;2023-05-07T11:36:22;22.70;70.30
74153;DHT22;62505;46.070;14.492;2023-05-07T11:38:49;22.80;70.70
74153;DHT22;62505;46.070;14.492;2023-05-07T11:41:16;22.80;70.30
74153;DHT22;62505;46.070;14.492;2023-05-07T11:43:55;22.70;70.20
74153;DHT22;62505;46.070;14.492;2023-05-07T11:46:22;22.80;69.80
74153;DHT22;62505;46.070;14.492;2023-05-07T11:48:49;22.80;70.10
74153;DHT22;62505;46.070;14.492;2023-05-07T11:51:20;22.80;70.40
74153;DHT22;62505;46.070;14.492;2023-05-07T11:53:48;22.80;69.90
74153;DHT22;62505;46.070;14.492;2023-05-07T11:56:16;22.80;70.20
74153;DHT22;62505;46.070;14.492;2023-05-07T11:58:44;22.80;69.90
74153;DHT22;62505;46.070;14.492;2023-05-07T12:01:12;22.80;70.10
74153;DHT22;62505;46.070;14.492;2023-05-07T12:03:40;22.90;69.60
74153;DHT22;62505;46.070;14.492;2023-05-07T12:06:09;22.80;70.00
74153;DHT22;62505;46.070;14.492;2023-05-07T12:08:38;22.80;69.90
74153;DHT22;62505;46.070;14.492;2023-05-07T12:11:08;22.80;69.60
74153;DHT22;62505;46.070;14.492;2023-05-07T12:13:37;22.80;70.90
74153;DHT22;62505;46.070;14.492;2023-05-07T12:16:05;22.80;70.40
74153;DHT22;62505;46.070;14.492;2023-05-07T12:18:39;22.80;70.10
74153;DHT22;62505;46.070;14.492;2023-05-07T12:21:06;22.80;70.30
74153;DHT22;62505;46.070;14.492;2023-05-07T12:23:34;22.80;70.10
74153;DHT22;62505;46.070;14.492;2023-05-07T12:26:03;22.80;70.20
74153;DHT22;62505;46.070;14.492;2023-05-07T12:28:31;22.80;70.40
74153;DHT22;62505;46.070;14.492;2023-05-07T12:31:02;22.80;70.10
74153;DHT22;62505;46.070;14.492;2023-05-07T12:33:29;22.80;69.90
74153;DHT22;62505;46.070;14.492;2023-05-07T12:35:58;22.80;70.10
74153;DHT22;62505;46.070;14.492;2023-05-07T12:38:35;22.80;69.70
74153;DHT22;62505;46.070;14.492;2023-05-07T12:41:04;22.80;70.30
74153;DHT22;62505;46.070;14.492;2023-05-07T12:43:31;22.80;69.90
74153;DHT22;62505;46.070;14.492;2023-05-07T12:46:04;22.80;70.10
74153;DHT22;62505;46.070;14.492;2023-05-07T12:48:31;22.80;70.40
74153;DHT22;62505;46.070;14.492;2023-05-07T12:51:00;22.80;70.30
74153;DHT22;62505;46.070;14.492;2023-05-07T12:53:28;22.80;70.30
74153;DHT22;62505;46.070;14.492;2023-05-07T12:55:58;22.80;70.00
74153;DHT22;62505;46.070;14.492;2023-05-07T12:58:30;22.80;70.00
74153;DHT22;62505;46.070;14.492;2023-05-07T13:01:01;22.80;69.80
74153;DHT22;62505;46.070;14.492;2023-05-07T13:03:36;22.80;70.20
74153;DHT22;62505;46.070;14.492;2023-05-07T13:06:04;22.80;69.90
74153;DHT22;62505;46.070;14.492;2023-05-07T13:08:33;22.80;68.60
74153;DHT22;62505;46.070;14.492;2023-05-07T13:11:01;22.90;68.70
74153;DHT22;62505;46.070;14.492;2023-05-07T13:13:31;22.80;68.60
74153;DHT22;62505;46.070;14.492;2023-05-07T13:15:58;22.80;68.30
74153;DHT22;62505;46.070;14.492;2023-05-07T13:18:26;22.80;67.20
74153;DHT22;62505;46.070;14.492;2023-05-07T13:20:57;22.90;68.50
74153;DHT22;62505;46.070;14.492;2023-05-07T13:23:24;22.80;67.90
74153;DHT22;62505;46.070;14.492;2023-05-07T13:25:51;22.80;67.70
74153;DHT22;62505;46.070;14.492;2023-05-07T13:28:19;22.90;68.50
74153;DHT22;62505;46.070;14.492;2023-05-07T13:30:48;22.90;67.20
74153;DHT22;62505;46.070;14.492;2023-05-07T13:33:17;22.80;67.90
74153;DHT22;62505;46.070;14.492;2023-05-07T13:35:45;22.90;67.60
74153;DHT22;62505;46.070;14.492;2023-05-07T13:38:12;22.90;68.80
74153;DHT22;62505;46.070;14.492;2023-05-07T13:40:41;22.80;67.60
74153;DHT22;62505;46.070;14.492;2023-05-07T13:43:08;22.90;68.60
74153;DHT22;62505;46.070;14.492;2023-05-07T13:45:36;22.90;68.90
74153;DHT22;62505;46.070;14.492;2023-05-07T13:48:04;22.90;69.00
74153;DHT22;62505;46.070;14.492;2023-05-07T13:50:31;22.80;68.50
74153;DHT22;62505;46.070;14.492;2023-05-07T13:52:58;22.80;68.30
74153;DHT22;62505;46.070;14.492;2023-05-07T13:55:25;22.80;68.40
74153;DHT22;62505;46.070;14.492;2023-05-07T13:57:56;22.80;68.20
74153;DHT22;62505;46.070;14.492;2023-05-07T14:00:23;22.80;68.60
74153;DHT22;62505;46.070;14.492;2023-05-07T14:02:50;22.80;68.60
74153;DHT22;62505;46.070;14.492;2023-05-07T14:05:19;22.90;69.20
74153;DHT22;62505;46.070;14.492;2023-05-07T14:07:46;22.90;68.80
74153;DHT22;62505;46.070;14.492;2023-05-07T14:10:14;22.90;68.90
74153;DHT22;62505;46.070;14.492;2023-05-07T14:12:41;22.90;68.70
74153;DHT22;62505;46.070;14.492;2023-05-07T14:15:08;22.90;68.70
74153;DHT22;62505;46.070;14.492;2023-05-07T14:17:36;22.90;68.60
74153;DHT22;62505;46.070;14.492;2023-05-07T14:20:03;22.90;68.90
74153;DHT22;62505;46.070;14.492;2023-05-07T14:22:33;22.90;69.00
74153;DHT22;62505;46.070;14.492;2023-05-07T14:25:00;22.80;68.70
74153;DHT22;62505;46.070;14.492;2023-05-07T14:27:26;22.90;68.70
74153;DHT22;62505;46.070;14.492;2023-05-07T14:29:53;22.90;69.00
74153;DHT22;62505;46.070;14.492;2023-05-07T14:32:21;22.90;69.20
74153;DHT22;62505;46.070;14.492;2023-05-07T14:34:48;22.90;68.40
74153;DHT22;62505;46.070;14.492;2023-05-07T14:37:14;22.90;68.70
74153;DHT22;62505;46.070;14.492;2023-05-07T14:39:43;22.80;69.50
74153;DHT22;62505;46.070;14.492;2023-05-07T14:42:09;22.80;68.90
74153;DHT22;62505;46.070;14.492;2023-05-07T14:44:38;22.90;69.00
74153;DHT22;62505;46.070;14.492;2023-05-07T14:47:06;22.80;68.90
74153;DHT22;62505;46.070;14.492;2023-05-07T14:49:33;22.80;69.00
74153;DHT22;62505;46.070;14.492;2023-05-07T14:52:00;22.90;69.20
74153;DHT22;62505;46.070;14.492;2023-05-07T14:54:27;22.80;69.20
74153;DHT22;62505;46.070;14.492;2023-05-07T14:56:55;22.80;69.20
74153;DHT22;62505;46.070;14.492;2023-05-07T14:59:22;22.90;69.20
74153;DHT22;62505;46.070;14.492;2023-05-07T15:01:50;22.90;69.20
74153;DHT22;62505;46.070;14.492;2023-05-07T15:04:17;22.90;69.30
74153;DHT22;62505;46.070;14.492;2023-05-07T15:06:44;22.90;69.40
74153;DHT22;62505;46.070;14.492;2023-05-07T15:09:11;22.90;69.20
74153;DHT22;62505;46.070;14.492;2023-05-07T15:11:38;22.90;69.50
74153;DHT22;62505;46.070;14.492;2023-05-07T15:14:07;23.00;69.50
74153;DHT22;62505;46.070;14.492;2023-05-07T15:16:33;22.90;69.40
74153;DHT22;62505;46.070;14.492;2023-05-07T15:19:00;23.00;69.60
74153;DHT22;62505;46.070;14.492;2023-05-07T15:21:27;23.00;69.30